sensor_id;sensor_type;location;lat;lon;timestamp;temperature;humidity
70820;DHT22;58439;51.046;13.692;2022-08-02T00:02:54;20.00;63.30
70820;DHT22;58439;51.046;13.692;2022-08-02T00:06:43;19.90;63.20
70820;DHT22;58439;51.046;13.692;2022-08-02T00:10:34;19.80;63.40
70820;DHT22;58439;51.046;13.692;2022-08-02T00:14:24;19.80;63.70
70820;DHT22;58439;51.046;13.692;2022-08-02T00:17:42;19.80;63.80
70820;DHT22;58439;51.046;13.692;2022-08-02T00:20:50;19.70;63.80
70820;DHT22;58439;51.046;13.692;2022-08-02T00:23:50;19.50;64.00
70820;DHT22;58439;51.046;13.692;2022-08-02T00:26:59;19.30;64.70
70820;DHT22;58439;51.046;13.692;2022-08-02T00:29:42;19.30;65.20
70820;DHT22;58439;51.046;13.692;2022-08-02T00:33:11;19.30;65.10
70820;DHT22;58439;51.046;13.692;2022-08-02T00:36:24;19.10;65.80
70820;DHT22;58439;51.046;13.692;2022-08-02T00:39:20;19.00;65.50
70820;DHT22;58439;51.046;13.692;2022-08-02T00:50:40;18.70;66.30
70820;DHT22;58439;51.046;13.692;2022-08-02T01:02:49;18.90;66.60
70820;DHT22;58439;51.046;13.692;2022-08-02T01:06:02;18.80;66.60
70820;DHT22;58439;51.046;13.692;2022-08-02T01:08:42;18.70;66.70
70820;DHT22;58439;51.046;13.692;2022-08-02T01:11:15;18.70;67.00
70820;DHT22;58439;51.046;13.692;2022-08-02T01:13:42;18.60;67.20
70820;DHT22;58439;51.046;13.692;2022-08-02T01:16:17;18.50;67.40
70820;DHT22;58439;51.046;13.692;2022-08-02T01:19:14;18.40;67.50
70820;DHT22;58439;51.046;13.692;2022-08-02T01:31:20;18.30;68.50
70820;DHT22;58439;51.046;13.692;2022-08-02T01:34:10;18.30;68.40
70820;DHT22;58439;51.046;13.692;2022-08-02T01:36:59;18.40;68.10
70820;DHT22;58439;51.046;13.692;2022-08-02T01:40:00;18.30;68.40
70820;DHT22;58439;51.046;13.692;2022-08-02T01:42:41;18.20;68.80
70820;DHT22;58439;51.046;13.692;2022-08-02T01:45:38;18.20;68.70
70820;DHT22;58439;51.046;13.692;2022-08-02T01:49:04;18.30;68.60
70820;DHT22;58439;51.046;13.692;2022-08-02T01:51:42;18.20;68.80
70820;DHT22;58439;51.046;13.692;2022-08-02T01:54:40;18.20;68.80
70820;DHT22;58439;51.046;13.692;2022-08-02T01:57:22;18.20;68.80
70820;DHT22;58439;51.046;13.692;2022-08-02T01:59:58;18.10;69.00
70820;DHT22;58439;51.046;13.692;2022-08-02T02:02:32;18.10;69.10
70820;DHT22;58439;51.046;13.692;2022-08-02T02:05:18;18.10;69.00
70820;DHT22;58439;51.046;13.692;2022-08-02T02:07:57;18.10;68.90
70820;DHT22;58439;51.046;13.692;2022-08-02T02:10:30;18.10;69.00
70820;DHT22;58439;51.046;13.692;2022-08-02T02:13:05;18.10;69.10
70820;DHT22;58439;51.046;13.692;2022-08-02T02:15:46;18.10;69.10
70820;DHT22;58439;51.046;13.692;2022-08-02T02:18:40;18.10;69.00
70820;DHT22;58439;51.046;13.692;2022-08-02T02:21:17;18.10;69.10
70820;DHT22;58439;51.046;13.692;2022-08-02T02:23:49;18.10;68.80
70820;DHT22;58439;51.046;13.692;2022-08-02T02:26:30;18.10;68.80
70820;DHT22;58439;51.046;13.692;2022-08-02T02:29:10;18.10;69.00
70820;DHT22;58439;51.046;13.692;2022-08-02T02:31:46;18.20;68.90
70820;DHT22;58439;51.046;13.692;2022-08-02T02:34:39;18.20;68.70
70820;DHT22;58439;51.046;13.692;2022-08-02T02:37:23;18.10;68.70
70820;DHT22;58439;51.046;13.692;2022-08-02T02:40:02;18.10;68.60
70820;DHT22;58439;51.046;13.692;2022-08-02T02:42:48;18.00;68.70
70820;DHT22;58439;51.046;13.692;2022-08-02T02:45:51;17.90;68.90
70820;DHT22;58439;51.046;13.692;2022-08-02T02:48:34;17.80;69.20
70820;DHT22;58439;51.046;13.692;2022-08-02T02:51:17;17.70;69.50
70820;DHT22;58439;51.046;13.692;2022-08-02T02:54:15;17.70;70.00
70820;DHT22;58439;51.046;13.692;2022-08-02T02:57:21;17.60;70.10
70820;DHT22;58439;51.046;13.692;2022-08-02T02:59:59;17.50;70.20
70820;DHT22;58439;51.046;13.692;2022-08-02T03:02:52;17.50;70.50
70820;DHT22;58439;51.046;13.692;2022-08-02T03:05:35;17.50;70.60
70820;DHT22;58439;51.046;13.692;2022-08-02T03:08:17;17.40;70.80
70820;DHT22;58439;51.046;13.692;2022-08-02T03:11:01;17.40;71.10
70820;DHT22;58439;51.046;13.692;2022-08-02T03:13:47;17.30;71.00
70820;DHT22;58439;51.046;13.692;2022-08-02T03:16:20;17.30;71.40
70820;DHT22;58439;51.046;13.692;2022-08-02T03:19:01;17.30;71.70
70820;DHT22;58439;51.046;13.692;2022-08-02T03:21:50;17.30;72.00
70820;DHT22;58439;51.046;13.692;2022-08-02T03:24:35;17.40;71.70
70820;DHT22;58439;51.046;13.692;2022-08-02T03:27:13;17.50;71.90
70820;DHT22;58439;51.046;13.692;2022-08-02T03:29:50;17.50;71.60
70820;DHT22;58439;51.046;13.692;2022-08-02T03:32:30;17.60;71.30
70820;DHT22;58439;51.046;13.692;2022-08-02T03:35:20;17.60;71.00
70820;DHT22;58439;51.046;13.692;2022-08-02T03:38:04;17.60;71.00
70820;DHT22;58439;51.046;13.692;2022-08-02T03:40:36;17.50;70.90
70820;DHT22;58439;51.046;13.692;2022-08-02T03:43:08;17.30;71.00
70820;DHT22;58439;51.046;13.692;2022-08-02T03:45:45;17.20;71.30
70820;DHT22;58439;51.046;13.692;2022-08-02T03:48:15;17.10;71.50
70820;DHT22;58439;51.046;13.692;2022-08-02T03:51:02;17.00;71.60
70820;DHT22;58439;51.046;13.692;2022-08-02T03:53:30;17.00;71.90
70820;DHT22;58439;51.046;13.692;2022-08-02T03:56:00;16.90;71.90
70820;DHT22;58439;51.046;13.692;2022-08-02T03:58:30;17.00;71.90
70820;DHT22;58439;51.046;13.692;2022-08-02T04:00:58;17.10;71.80
70820;DHT22;58439;51.046;13.692;2022-08-02T04:03:25;17.10;71.60
70820;DHT22;58439;51.046;13.692;2022-08-02T04:05:54;17.10;71.50
70820;DHT22;58439;51.046;13.692;2022-08-02T04:08:39;17.10;71.60
70820;DHT22;58439;51.046;13.692;2022-08-02T04:11:13;17.00;71.60
70820;DHT22;58439;51.046;13.692;2022-08-02T04:14:04;17.00;71.60
70820;DHT22;58439;51.046;13.692;2022-08-02T04:17:07;17.10;71.80
70820;DHT22;58439;51.046;13.692;2022-08-02T04:19:48;17.20;71.60
70820;DHT22;58439;51.046;13.692;2022-08-02T04:22:29;17.30;71.40
70820;DHT22;58439;51.046;13.692;2022-08-02T04:25:18;17.40;71.40
70820;DHT22;58439;51.046;13.692;2022-08-02T04:28:07;17.50;71.20
70820;DHT22;58439;51.046;13.692;2022-08-02T04:30:48;17.60;70.70
70820;DHT22;58439;51.046;13.692;2022-08-02T04:33:21;17.80;70.50
70820;DHT22;58439;51.046;13.692;2022-08-02T04:35:56;17.80;70.30
70820;DHT22;58439;51.046;13.692;2022-08-02T04:38:31;17.90;70.20
70820;DHT22;58439;51.046;13.692;2022-08-02T04:41:08;17.90;70.20
70820;DHT22;58439;51.046;13.692;2022-08-02T04:43:40;17.90;70.30
70820;DHT22;58439;51.046;13.692;2022-08-02T04:46:39;18.00;70.10
70820;DHT22;58439;51.046;13.692;2022-08-02T04:49:11;18.10;69.80
70820;DHT22;58439;51.046;13.692;2022-08-02T04:51:50;18.10;69.60
70820;DHT22;58439;51.046;13.692;2022-08-02T04:54:54;18.20;69.40
70820;DHT22;58439;51.046;13.692;2022-08-02T04:57:25;18.20;69.30
70820;DHT22;58439;51.046;13.692;2022-08-02T05:00:41;18.40;69.20
70820;DHT22;58439;51.046;13.692;2022-08-02T05:03:18;18.50;68.80
70820;DHT22;58439;51.046;13.692;2022-08-02T05:05:45;18.60;68.50
70820;DHT22;58439;51.046;13.692;2022-08-02T05:08:12;18.70;68.20
70820;DHT22;58439;51.046;13.692;2022-08-02T05:10:39;18.70;67.90
70820;DHT22;58439;51.046;13.692;2022-08-02T05:13:09;18.90;67.70
70820;DHT22;58439;51.046;13.692;2022-08-02T05:16:01;19.00;67.20
70820;DHT22;58439;51.046;13.692;2022-08-02T05:19:15;19.20;66.90
70820;DHT22;58439;51.046;13.692;2022-08-02T05:22:28;19.20;66.30
70820;DHT22;58439;51.046;13.692;2022-08-02T05:29:36;19.30;65.80
70820;DHT22;58439;51.046;13.692;2022-08-02T05:33:02;19.30;65.90
70820;DHT22;58439;51.046;13.692;2022-08-02T05:36:22;19.50;65.30
70820;DHT22;58439;51.046;13.692;2022-08-02T05:44:29;19.60;65.10
70820;DHT22;58439;51.046;13.692;2022-08-02T05:49:00;19.80;64.60
70820;DHT22;58439;51.046;13.692;2022-08-02T06:06:03;20.20;63.00
70820;DHT22;58439;51.046;13.692;2022-08-02T06:10:22;20.20;62.90
70820;DHT22;58439;51.046;13.692;2022-08-02T06:14:23;20.10;63.00
70820;DHT22;58439;51.046;13.692;2022-08-02T06:18:05;20.00;63.30
70820;DHT22;58439;51.046;13.692;2022-08-02T06:22:13;19.90;63.70
70820;DHT22;58439;51.046;13.692;2022-08-02T06:29:29;20.30;63.30
70820;DHT22;58439;51.046;13.692;2022-08-02T06:42:01;21.20;60.90
70820;DHT22;58439;51.046;13.692;2022-08-02T06:45:35;21.50;60.00
70820;DHT22;58439;51.046;13.692;2022-08-02T06:53:06;21.90;58.40
70820;DHT22;58439;51.046;13.692;2022-08-02T06:55:37;21.90;58.60
70820;DHT22;58439;51.046;13.692;2022-08-02T06:58:10;21.90;58.60
70820;DHT22;58439;51.046;13.692;2022-08-02T07:20:10;22.20;56.90
70820;DHT22;58439;51.046;13.692;2022-08-02T07:27:10;22.60;55.40
70820;DHT22;58439;51.046;13.692;2022-08-02T07:29:43;22.80;54.70
70820;DHT22;58439;51.046;13.692;2022-08-02T07:32:25;22.90;54.00
70820;DHT22;58439;51.046;13.692;2022-08-02T07:35:02;23.10;53.60
70820;DHT22;58439;51.046;13.692;2022-08-02T07:37:35;23.20;53.10
70820;DHT22;58439;51.046;13.692;2022-08-02T07:40:24;23.40;52.40
70820;DHT22;58439;51.046;13.692;2022-08-02T07:42:54;23.40;51.90
70820;DHT22;58439;51.046;13.692;2022-08-02T07:45:31;23.50;51.60
70820;DHT22;58439;51.046;13.692;2022-08-02T07:48:02;23.50;51.30
70820;DHT22;58439;51.046;13.692;2022-08-02T07:50:29;23.60;51.20
70820;DHT22;58439;51.046;13.692;2022-08-02T07:52:57;23.70;50.50
70820;DHT22;58439;51.046;13.692;2022-08-02T07:55:27;23.70;49.70
70820;DHT22;58439;51.046;13.692;2022-08-02T08:02:13;24.00;49.30
70820;DHT22;58439;51.046;13.692;2022-08-02T08:05:23;24.00;48.70
70820;DHT22;58439;51.046;13.692;2022-08-02T08:08:19;24.00;48.60
70820;DHT22;58439;51.046;13.692;2022-08-02T08:11:04;24.10;48.30
70820;DHT22;58439;51.046;13.692;2022-08-02T08:13:35;24.10;48.50
70820;DHT22;58439;51.046;13.692;2022-08-02T08:16:08;24.20;48.40
70820;DHT22;58439;51.046;13.692;2022-08-02T08:19:57;24.20;47.80
70820;DHT22;58439;51.046;13.692;2022-08-02T08:30:19;24.50;47.00
70820;DHT22;58439;51.046;13.692;2022-08-02T08:46:09;25.00;45.40
70820;DHT22;58439;51.046;13.692;2022-08-02T08:49:20;25.20;45.30
70820;DHT22;58439;51.046;13.692;2022-08-02T08:56:35;25.60;43.80
70820;DHT22;58439;51.046;13.692;2022-08-02T09:00:15;25.80;43.60
70820;DHT22;58439;51.046;13.692;2022-08-02T09:17:49;26.20;41.10
70820;DHT22;58439;51.046;13.692;2022-08-02T09:22:18;26.10;41.90
70820;DHT22;58439;51.046;13.692;2022-08-02T09:25:28;26.20;41.60
70820;DHT22;58439;51.046;13.692;2022-08-02T09:28:09;26.20;41.40
70820;DHT22;58439;51.046;13.692;2022-08-02T09:30:44;26.20;41.10
70820;DHT22;58439;51.046;13.692;2022-08-02T09:33:27;26.20;40.80
70820;DHT22;58439;51.046;13.692;2022-08-02T09:36:06;26.20;41.00
70820;DHT22;58439;51.046;13.692;2022-08-02T09:39:05;26.20;41.10
70820;DHT22;58439;51.046;13.692;2022-08-02T09:41:43;26.40;40.30
70820;DHT22;58439;51.046;13.692;2022-08-02T09:44:12;26.40;40.10
70820;DHT22;58439;51.046;13.692;2022-08-02T09:46:45;26.60;40.00
70820;DHT22;58439;51.046;13.692;2022-08-02T09:49:17;26.90;39.40
70820;DHT22;58439;51.046;13.692;2022-08-02T09:51:56;27.00;38.00
70820;DHT22;58439;51.046;13.692;2022-08-02T09:54:28;27.20;38.00
70820;DHT22;58439;51.046;13.692;2022-08-02T09:57:09;27.30;37.30
70820;DHT22;58439;51.046;13.692;2022-08-02T09:59:54;27.50;36.90
70820;DHT22;58439;51.046;13.692;2022-08-02T10:02:38;27.50;36.70
70820;DHT22;58439;51.046;13.692;2022-08-02T10:05:16;27.80;36.50
70820;DHT22;58439;51.046;13.692;2022-08-02T10:08:36;28.00;35.20
70820;DHT22;58439;51.046;13.692;2022-08-02T10:11:21;28.00;34.50
70820;DHT22;58439;51.046;13.692;2022-08-02T10:13:58;28.00;34.80
70820;DHT22;58439;51.046;13.692;2022-08-02T10:16:33;27.90;34.90
70820;DHT22;58439;51.046;13.692;2022-08-02T10:19:06;27.90;35.00
70820;DHT22;58439;51.046;13.692;2022-08-02T10:21:45;28.20;34.50
70820;DHT22;58439;51.046;13.692;2022-08-02T10:24:21;28.10;33.90
70820;DHT22;58439;51.046;13.692;2022-08-02T10:26:51;28.10;34.30
70820;DHT22;58439;51.046;13.692;2022-08-02T10:29:34;28.10;34.20
70820;DHT22;58439;51.046;13.692;2022-08-02T10:32:21;28.00;34.20
70820;DHT22;58439;51.046;13.692;2022-08-02T10:34:54;27.90;34.30
70820;DHT22;58439;51.046;13.692;2022-08-02T10:37:47;27.90;34.10
70820;DHT22;58439;51.046;13.692;2022-08-02T10:40:18;28.30;33.50
70820;DHT22;58439;51.046;13.692;2022-08-02T10:42:51;28.60;33.10
70820;DHT22;58439;51.046;13.692;2022-08-02T10:45:21;28.80;32.40
70820;DHT22;58439;51.046;13.692;2022-08-02T10:48:03;28.80;32.20
70820;DHT22;58439;51.046;13.692;2022-08-02T10:50:51;29.00;32.30
70820;DHT22;58439;51.046;13.692;2022-08-02T10:56:00;29.50;31.10
70820;DHT22;58439;51.046;13.692;2022-08-02T10:58:30;29.80;30.80
70820;DHT22;58439;51.046;13.692;2022-08-02T11:01:04;30.10;30.00
70820;DHT22;58439;51.046;13.692;2022-08-02T11:03:49;30.20;29.90
70820;DHT22;58439;51.046;13.692;2022-08-02T11:06:15;30.40;29.30
70820;DHT22;58439;51.046;13.692;2022-08-02T11:09:27;30.50;28.90
70820;DHT22;58439;51.046;13.692;2022-08-02T11:12:11;30.50;28.70
70820;DHT22;58439;51.046;13.692;2022-08-02T11:14:42;30.90;28.70
70820;DHT22;58439;51.046;13.692;2022-08-02T11:17:16;31.40;27.90
70820;DHT22;58439;51.046;13.692;2022-08-02T11:22:38;32.10;27.10
70820;DHT22;58439;51.046;13.692;2022-08-02T11:27:52;33.00;25.40
70820;DHT22;58439;51.046;13.692;2022-08-02T11:30:22;32.60;25.40
70820;DHT22;58439;51.046;13.692;2022-08-02T11:32:55;32.40;25.90
70820;DHT22;58439;51.046;13.692;2022-08-02T11:35:35;32.00;25.90
70820;DHT22;58439;51.046;13.692;2022-08-02T11:38:17;31.40;26.50
70820;DHT22;58439;51.046;13.692;2022-08-02T11:40:47;31.00;27.00
70820;DHT22;58439;51.046;13.692;2022-08-02T11:43:21;31.20;27.10
70820;DHT22;58439;51.046;13.692;2022-08-02T11:45:51;31.70;26.50
70820;DHT22;58439;51.046;13.692;2022-08-02T11:48:33;31.60;26.50
70820;DHT22;58439;51.046;13.692;2022-08-02T11:51:17;32.00;27.20
70820;DHT22;58439;51.046;13.692;2022-08-02T11:53:51;33.00;25.30
70820;DHT22;58439;51.046;13.692;2022-08-02T11:56:31;34.00;24.30
70820;DHT22;58439;51.046;13.692;2022-08-02T11:59:06;34.80;23.20
70820;DHT22;58439;51.046;13.692;2022-08-02T12:01:36;35.40;22.50
70820;DHT22;58439;51.046;13.692;2022-08-02T12:04:23;35.70;22.10
70820;DHT22;58439;51.046;13.692;2022-08-02T12:07:00;35.80;21.70
70820;DHT22;58439;51.046;13.692;2022-08-02T12:10:14;35.10;21.40
70820;DHT22;58439;51.046;13.692;2022-08-02T12:12:59;34.30;22.50
70820;DHT22;58439;51.046;13.692;2022-08-02T12:15:52;34.10;22.50
70820;DHT22;58439;51.046;13.692;2022-08-02T12:18:56;33.60;23.10
70820;DHT22;58439;51.046;13.692;2022-08-02T12:22:18;33.80;23.10
70820;DHT22;58439;51.046;13.692;2022-08-02T12:24:56;33.50;23.30
70820;DHT22;58439;51.046;13.692;2022-08-02T12:27:34;34.00;23.10
70820;DHT22;58439;51.046;13.692;2022-08-02T12:30:24;34.40;22.60
70820;DHT22;58439;51.046;13.692;2022-08-02T12:33:10;34.90;22.20
70820;DHT22;58439;51.046;13.692;2022-08-02T12:35:49;34.70;21.80
70820;DHT22;58439;51.046;13.692;2022-08-02T12:38:52;34.70;22.10
70820;DHT22;58439;51.046;13.692;2022-08-02T12:42:01;34.70;21.60
70820;DHT22;58439;51.046;13.692;2022-08-02T12:45:13;35.40;21.20
70820;DHT22;58439;51.046;13.692;2022-08-02T12:49:23;36.30;20.10
70820;DHT22;58439;51.046;13.692;2022-08-02T12:52:20;35.60;19.90
70820;DHT22;58439;51.046;13.692;2022-08-02T12:54:57;34.50;20.70
70820;DHT22;58439;51.046;13.692;2022-08-02T13:00:57;33.30;22.10
70820;DHT22;58439;51.046;13.692;2022-08-02T13:03:26;33.10;22.30
70820;DHT22;58439;51.046;13.692;2022-08-02T13:06:17;33.50;22.30
70820;DHT22;58439;51.046;13.692;2022-08-02T13:09:13;33.80;21.40
70820;DHT22;58439;51.046;13.692;2022-08-02T13:11:42;34.20;21.30
70820;DHT22;58439;51.046;13.692;2022-08-02T13:14:11;35.00;20.50
70820;DHT22;58439;51.046;13.692;2022-08-02T13:16:39;35.10;20.50
70820;DHT22;58439;51.046;13.692;2022-08-02T13:19:11;34.70;20.30
70820;DHT22;58439;51.046;13.692;2022-08-02T13:21:46;35.00;20.60
70820;DHT22;58439;51.046;13.692;2022-08-02T13:24:39;36.00;19.80
70820;DHT22;58439;51.046;13.692;2022-08-02T13:27:26;37.20;18.50
70820;DHT22;58439;51.046;13.692;2022-08-02T13:30:17;37.70;17.30
70820;DHT22;58439;51.046;13.692;2022-08-02T13:32:49;36.50;18.20
70820;DHT22;58439;51.046;13.692;2022-08-02T13:35:34;35.30;19.20
70820;DHT22;58439;51.046;13.692;2022-08-02T13:38:58;35.40;19.40
70820;DHT22;58439;51.046;13.692;2022-08-02T13:41:31;36.50;18.70
70820;DHT22;58439;51.046;13.692;2022-08-02T13:44:09;36.20;18.40
70820;DHT22;58439;51.046;13.692;2022-08-02T13:46:42;35.20;19.10
70820;DHT22;58439;51.046;13.692;2022-08-02T13:49:13;35.50;19.10
70820;DHT22;58439;51.046;13.692;2022-08-02T13:51:46;35.70;18.70
70820;DHT22;58439;51.046;13.692;2022-08-02T13:54:16;35.30;18.90
70820;DHT22;58439;51.046;13.692;2022-08-02T13:56:54;34.90;19.40
70820;DHT22;58439;51.046;13.692;2022-08-02T13:59:23;34.90;19.30
70820;DHT22;58439;51.046;13.692;2022-08-02T14:02:27;34.30;19.80
70820;DHT22;58439;51.046;13.692;2022-08-02T14:05:18;34.40;20.20
70820;DHT22;58439;51.046;13.692;2022-08-02T14:08:06;35.20;19.50
70820;DHT22;58439;51.046;13.692;2022-08-02T14:10:43;35.40;18.80
70820;DHT22;58439;51.046;13.692;2022-08-02T14:13:16;35.60;18.70
70820;DHT22;58439;51.046;13.692;2022-08-02T14:15:44;36.20;18.50
70820;DHT22;58439;51.046;13.692;2022-08-02T14:18:13;37.10;18.10
70820;DHT22;58439;51.046;13.692;2022-08-02T14:20:56;38.30;17.20
70820;DHT22;58439;51.046;13.692;2022-08-02T14:23:36;39.10;16.60
70820;DHT22;58439;51.046;13.692;2022-08-02T14:26:17;39.70;15.80
70820;DHT22;58439;51.046;13.692;2022-08-02T14:28:54;39.90;15.20
70820;DHT22;58439;51.046;13.692;2022-08-02T14:31:25;39.40;15.60
70820;DHT22;58439;51.046;13.692;2022-08-02T14:33:52;39.40;15.40
70820;DHT22;58439;51.046;13.692;2022-08-02T14:36:21;39.40;15.20
70820;DHT22;58439;51.046;13.692;2022-08-02T14:38:54;39.40;15.10
70820;DHT22;58439;51.046;13.692;2022-08-02T14:41:31;39.30;15.20
70820;DHT22;58439;51.046;13.692;2022-08-02T14:44:23;39.00;15.60
70820;DHT22;58439;51.046;13.692;2022-08-02T14:46:57;38.10;16.00
70820;DHT22;58439;51.046;13.692;2022-08-02T14:49:46;38.00;16.20
70820;DHT22;58439;51.046;13.692;2022-08-02T14:52:25;38.50;15.80
70820;DHT22;58439;51.046;13.692;2022-08-02T14:54:56;38.50;15.50
70820;DHT22;58439;51.046;13.692;2022-08-02T14:57:33;38.80;15.70
70820;DHT22;58439;51.046;13.692;2022-08-02T15:00:00;39.10;15.60
70820;DHT22;58439;51.046;13.692;2022-08-02T15:02:28;39.40;15.30
70820;DHT22;58439;51.046;13.692;2022-08-02T15:04:55;39.90;14.80
70820;DHT22;58439;51.046;13.692;2022-08-02T15:07:22;40.30;14.50
70820;DHT22;58439;51.046;13.692;2022-08-02T15:10:01;40.30;14.10
70820;DHT22;58439;51.046;13.692;2022-08-02T15:12:28;40.00;14.60
70820;DHT22;58439;51.046;13.692;2022-08-02T15:15:09;40.00;14.50
70820;DHT22;58439;51.046;13.692;2022-08-02T15:17:51;40.30;14.30
70820;DHT22;58439;51.046;13.692;2022-08-02T15:20:33;40.20;14.30
70820;DHT22;58439;51.046;13.692;2022-08-02T15:23:34;39.90;14.40
70820;DHT22;58439;51.046;13.692;2022-08-02T15:26:05;39.50;14.60
70820;DHT22;58439;51.046;13.692;2022-08-02T15:28:51;38.90;15.10
70820;DHT22;58439;51.046;13.692;2022-08-02T15:31:39;38.60;15.50
70820;DHT22;58439;51.046;13.692;2022-08-02T15:34:14;38.20;15.60
70820;DHT22;58439;51.046;13.692;2022-08-02T15:36:54;37.70;16.00
70820;DHT22;58439;51.046;13.692;2022-08-02T15:39:33;37.00;16.50
70820;DHT22;58439;51.046;13.692;2022-08-02T15:42:17;36.40;17.20
70820;DHT22;58439;51.046;13.692;2022-08-02T15:45:04;35.70;17.70
70820;DHT22;58439;51.046;13.692;2022-08-02T15:47:49;35.00;18.20
70820;DHT22;58439;51.046;13.692;2022-08-02T15:50:17;34.50;18.60
70820;DHT22;58439;51.046;13.692;2022-08-02T15:52:57;34.30;18.80
70820;DHT22;58439;51.046;13.692;2022-08-02T15:55:29;34.60;19.00
70820;DHT22;58439;51.046;13.692;2022-08-02T16:01:34;35.30;18.30
70820;DHT22;58439;51.046;13.692;2022-08-02T16:04:06;35.20;18.10
70820;DHT22;58439;51.046;13.692;2022-08-02T16:06:55;34.70;18.50
70820;DHT22;58439;51.046;13.692;2022-08-02T16:09:32;34.60;18.70
70820;DHT22;58439;51.046;13.692;2022-08-02T16:12:05;34.60;18.90
70820;DHT22;58439;51.046;13.692;2022-08-02T16:14:44;34.60;18.80
70820;DHT22;58439;51.046;13.692;2022-08-02T16:17:16;34.80;18.80
70820;DHT22;58439;51.046;13.692;2022-08-02T16:20:10;35.00;18.40
70820;DHT22;58439;51.046;13.692;2022-08-02T16:23:31;35.10;18.50
70820;DHT22;58439;51.046;13.692;2022-08-02T16:26:33;34.90;18.40
70820;DHT22;58439;51.046;13.692;2022-08-02T16:29:18;34.70;18.70
70820;DHT22;58439;51.046;13.692;2022-08-02T16:32:20;34.70;19.00
70820;DHT22;58439;51.046;13.692;2022-08-02T16:35:04;34.90;18.90
70820;DHT22;58439;51.046;13.692;2022-08-02T16:38:00;35.30;18.70
70820;DHT22;58439;51.046;13.692;2022-08-02T16:40:55;35.90;18.10
70820;DHT22;58439;51.046;13.692;2022-08-02T16:47:32;36.60;17.20
70820;DHT22;58439;51.046;13.692;2022-08-02T16:50:58;36.60;17.30
70820;DHT22;58439;51.046;13.692;2022-08-02T16:54:11;36.70;17.00
70820;DHT22;58439;51.046;13.692;2022-08-02T16:56:57;36.40;16.90
70820;DHT22;58439;51.046;13.692;2022-08-02T17:00:11;36.00;17.20
70820;DHT22;58439;51.046;13.692;2022-08-02T17:02:52;35.60;17.70
70820;DHT22;58439;51.046;13.692;2022-08-02T17:05:58;35.30;18.00
70820;DHT22;58439;51.046;13.692;2022-08-02T17:09:17;34.80;18.40
70820;DHT22;58439;51.046;13.692;2022-08-02T17:12:17;34.40;18.80
70820;DHT22;58439;51.046;13.692;2022-08-02T17:15:17;34.10;19.20
70820;DHT22;58439;51.046;13.692;2022-08-02T17:18:47;33.80;19.40
70820;DHT22;58439;51.046;13.692;2022-08-02T17:21:17;33.10;20.00
70820;DHT22;58439;51.046;13.692;2022-08-02T17:23:50;32.60;20.50
70820;DHT22;58439;51.046;13.692;2022-08-02T17:26:35;32.20;21.10
70820;DHT22;58439;51.046;13.692;2022-08-02T17:29:14;31.80;21.60
70820;DHT22;58439;51.046;13.692;2022-08-02T17:31:52;31.60;22.20
70820;DHT22;58439;51.046;13.692;2022-08-02T17:38:19;31.10;22.40
70820;DHT22;58439;51.046;13.692;2022-08-02T17:41:05;30.90;22.80
70820;DHT22;58439;51.046;13.692;2022-08-02T17:44:28;30.80;23.10
70820;DHT22;58439;51.046;13.692;2022-08-02T17:47:05;30.70;23.20
70820;DHT22;58439;51.046;13.692;2022-08-02T17:49:37;30.70;23.30
70820;DHT22;58439;51.046;13.692;2022-08-02T17:52:15;30.80;23.20
70820;DHT22;58439;51.046;13.692;2022-08-02T17:55:04;31.00;23.20
70820;DHT22;58439;51.046;13.692;2022-08-02T17:57:31;31.20;22.90
70820;DHT22;58439;51.046;13.692;2022-08-02T18:00:32;31.30;22.80
70820;DHT22;58439;51.046;13.692;2022-08-02T18:03:21;31.30;22.80
70820;DHT22;58439;51.046;13.692;2022-08-02T18:06:04;31.20;22.80
70820;DHT22;58439;51.046;13.692;2022-08-02T18:09:15;31.00;22.90
70820;DHT22;58439;51.046;13.692;2022-08-02T18:12:56;30.80;23.30
70820;DHT22;58439;51.046;13.692;2022-08-02T18:15:45;30.50;23.60
70820;DHT22;58439;51.046;13.692;2022-08-02T18:18:37;30.40;24.70
70820;DHT22;58439;51.046;13.692;2022-08-02T18:21:26;30.40;24.20
70820;DHT22;58439;51.046;13.692;2022-08-02T18:28:37;30.10;24.30
70820;DHT22;58439;51.046;13.692;2022-08-02T18:31:53;29.80;24.90
70820;DHT22;58439;51.046;13.692;2022-08-02T18:34:41;29.60;25.20
70820;DHT22;58439;51.046;13.692;2022-08-02T18:37:31;29.30;25.50
70820;DHT22;58439;51.046;13.692;2022-08-02T18:40:19;29.10;26.00
70820;DHT22;58439;51.046;13.692;2022-08-02T18:43:02;28.80;26.20
70820;DHT22;58439;51.046;13.692;2022-08-02T18:46:07;28.60;26.50
70820;DHT22;58439;51.046;13.692;2022-08-02T18:50:11;28.40;27.00
70820;DHT22;58439;51.046;13.692;2022-08-02T18:57:01;27.90;28.10
70820;DHT22;58439;51.046;13.692;2022-08-02T18:59:58;27.70;29.00
70820;DHT22;58439;51.046;13.692;2022-08-02T19:03:25;27.60;29.70
70820;DHT22;58439;51.046;13.692;2022-08-02T19:06:57;27.40;29.90
70820;DHT22;58439;51.046;13.692;2022-08-02T19:09:38;27.30;31.10
70820;DHT22;58439;51.046;13.692;2022-08-02T19:12:16;27.20;31.60
70820;DHT22;58439;51.046;13.692;2022-08-02T19:15:59;27.10;32.00
70820;DHT22;58439;51.046;13.692;2022-08-02T19:20:32;26.90;32.20
70820;DHT22;58439;51.046;13.692;2022-08-02T19:24:26;26.80;32.60
70820;DHT22;58439;51.046;13.692;2022-08-02T19:28:19;26.60;33.00
70820;DHT22;58439;51.046;13.692;2022-08-02T19:30:56;26.40;33.10
70820;DHT22;58439;51.046;13.692;2022-08-02T19:34:40;26.30;33.70
70820;DHT22;58439;51.046;13.692;2022-08-02T19:41:50;26.00;35.30
70820;DHT22;58439;51.046;13.692;2022-08-02T19:47:54;25.80;35.80
70820;DHT22;58439;51.046;13.692;2022-08-02T19:55:04;25.60;36.90
70820;DHT22;58439;51.046;13.692;2022-08-02T19:58:16;25.50;37.40
70820;DHT22;58439;51.046;13.692;2022-08-02T20:09:03;25.10;38.40
70820;DHT22;58439;51.046;13.692;2022-08-02T20:11:38;25.10;38.70
70820;DHT22;58439;51.046;13.692;2022-08-02T20:14:09;25.00;38.50
70820;DHT22;58439;51.046;13.692;2022-08-02T20:16:41;24.90;38.40
70820;DHT22;58439;51.046;13.692;2022-08-02T20:19:14;24.80;38.40
70820;DHT22;58439;51.046;13.692;2022-08-02T20:30:01;24.50;39.70
70820;DHT22;58439;51.046;13.692;2022-08-02T20:46:23;24.20;41.10
70820;DHT22;58439;51.046;13.692;2022-08-02T21:08:55;24.20;41.20
70820;DHT22;58439;51.046;13.692;2022-08-02T21:17:25;24.10;41.30
70820;DHT22;58439;51.046;13.692;2022-08-02T22:04:31;23.10;43.80
70820;DHT22;58439;51.046;13.692;2022-08-02T22:22:12;22.70;44.60